createdAt,value
2022-12-31T00:02:01.211Z,100296.97
2022-12-31T00:04:34.075Z,100286.78
2022-12-31T00:07:06.176Z,100301.25
2022-12-31T00:09:39.334Z,100301.59
2022-12-31T00:12:14.237Z,100304.66
2022-12-31T00:14:47.050Z,100307.47
2022-12-31T00:17:19.403Z,100303.59
2022-12-31T00:19:51.938Z,100298.09
2022-12-31T00:22:24.384Z,100307.53
2022-12-31T00:24:56.703Z,100309.38
2022-12-31T00:27:34.038Z,100325.66
2022-12-31T00:30:06.785Z,100318.28
2022-12-31T00:32:38.643Z,100312.31
2022-12-31T00:35:13.644Z,100326.47
2022-12-31T00:37:49.555Z,100320.75
2022-12-31T00:40:24.800Z,100322.13
2022-12-31T00:43:03.504Z,100318.66
2022-12-31T00:45:38.136Z,100321.63
2022-12-31T00:48:09.825Z,100311.66
2022-12-31T00:50:42.094Z,100317.63
2022-12-31T00:53:13.722Z,100311.28
2022-12-31T00:55:47.709Z,100309.50
2022-12-31T00:58:22.218Z,100310.69
2022-12-31T01:00:58.133Z,100319.38
2022-12-31T01:03:30.277Z,100328.78
2022-12-31T01:06:03.022Z,100341.97
2022-12-31T01:08:34.744Z,100349.78
2022-12-31T01:11:22.859Z,100347.00
2022-12-31T01:14:01.794Z,100353.00
2022-12-31T01:16:41.411Z,100356.94
2022-12-31T01:19:16.240Z,100356.59
2022-12-31T01:21:50.949Z,100343.47
2022-12-31T01:24:24.129Z,100346.16
2022-12-31T01:26:58.139Z,100353.44
2022-12-31T01:29:32.563Z,100359.97
2022-12-31T01:32:05.954Z,100362.41
2022-12-31T01:34:37.731Z,100348.66
2022-12-31T01:37:09.817Z,100358.25
2022-12-31T01:39:44.209Z,100373.47
2022-12-31T01:42:16.055Z,100372.13
2022-12-31T01:44:59.227Z,100371.81
2022-12-31T01:47:43.822Z,100377.56
2022-12-31T01:50:19.599Z,100377.28
2022-12-31T01:52:56.388Z,100382.31
2022-12-31T01:55:32.196Z,100389.06
2022-12-31T01:58:10.277Z,100390.66
2022-12-31T02:00:46.612Z,100371.22
2022-12-31T02:03:19.377Z,100379.38
2022-12-31T02:05:58.449Z,100378.25
2022-12-31T02:08:30.294Z,100381.59
2022-12-31T02:11:01.716Z,100393.75
2022-12-31T02:13:33.815Z,100388.00
2022-12-31T02:16:18.401Z,100398.72
2022-12-31T02:18:59.362Z,100392.31
2022-12-31T02:21:54.952Z,100394.63
2022-12-31T02:24:56.167Z,100387.84
2022-12-31T02:27:43.838Z,100391.44
2022-12-31T02:30:22.651Z,100389.22
2022-12-31T02:33:12.331Z,100393.41
2022-12-31T02:35:54.203Z,100385.03
2022-12-31T02:38:35.797Z,100381.59
2022-12-31T02:41:08.156Z,100384.94
2022-12-31T02:43:41.102Z,100385.59
2022-12-31T02:46:28.115Z,100389.66
2022-12-31T02:49:08.596Z,100379.53
2022-12-31T02:51:49.038Z,100378.81
2022-12-31T02:54:31.507Z,100384.28
2022-12-31T02:57:13.734Z,100387.44
2022-12-31T03:00:05.740Z,100387.09
2022-12-31T03:02:44.565Z,100377.56
2022-12-31T03:05:19.004Z,100382.03
2022-12-31T03:07:51.847Z,100375.06
2022-12-31T03:10:24.415Z,100368.09
2022-12-31T03:12:54.251Z,100369.88
2022-12-31T03:15:28.603Z,100379.91
2022-12-31T03:18:06.945Z,100371.81
2022-12-31T03:20:53.547Z,100384.81
2022-12-31T03:23:28.236Z,100379.34
2022-12-31T03:25:58.776Z,100377.31
2022-12-31T03:28:33.043Z,100378.53
2022-12-31T03:31:07.142Z,100373.88
2022-12-31T03:33:44.589Z,100365.91
2022-12-31T03:36:18.126Z,100379.09
2022-12-31T03:38:52.818Z,100375.09
2022-12-31T03:41:25.271Z,100376.66
2022-12-31T03:43:57.775Z,100374.25
2022-12-31T03:46:29.793Z,100365.16
2022-12-31T03:49:05.137Z,100353.81
2022-12-31T03:51:37.210Z,100346.84
2022-12-31T03:54:09.715Z,100353.91
2022-12-31T03:56:41.581Z,100340.16
2022-12-31T03:59:13.327Z,100335.59
2022-12-31T04:01:45.278Z,100329.56
2022-12-31T04:04:20.048Z,100341.56
2022-12-31T04:06:51.528Z,100340.97
2022-12-31T04:09:24.017Z,100344.84
2022-12-31T04:11:55.682Z,100341.06
2022-12-31T04:14:27.925Z,100350.59
2022-12-31T04:16:59.730Z,100347.34
2022-12-31T04:19:34.742Z,100344.38
2022-12-31T04:22:06.722Z,100346.91
2022-12-31T04:24:38.813Z,100338.84
2022-12-31T04:27:10.410Z,100342.94
2022-12-31T04:29:45.257Z,100336.16
2022-12-31T04:32:16.484Z,100347.66
2022-12-31T04:34:51.157Z,100358.13
2022-12-31T04:37:22.533Z,100347.59
2022-12-31T04:39:54.130Z,100343.16
2022-12-31T04:42:25.498Z,100346.88
2022-12-31T04:44:57.344Z,100342.00
2022-12-31T04:47:28.572Z,100337.63
2022-12-31T04:50:03.411Z,100333.19
2022-12-31T04:52:42.098Z,100321.16
2022-12-31T04:55:15.225Z,100297.22
2022-12-31T04:57:46.806Z,100297.00
2022-12-31T05:00:19.338Z,100303.19
2022-12-31T05:02:51.102Z,100307.16
2022-12-31T05:05:25.314Z,100303.44
2022-12-31T05:07:56.796Z,100296.25
2022-12-31T05:10:28.557Z,100294.56
2022-12-31T05:13:00.102Z,100298.31
2022-12-31T05:15:31.761Z,100297.41
2022-12-31T05:18:03.322Z,100298.63
2022-12-31T05:20:38.075Z,100298.69
2022-12-31T05:23:09.459Z,100314.97
2022-12-31T05:25:41.301Z,100308.50
2022-12-31T05:28:12.741Z,100307.44
2022-12-31T05:30:45.224Z,100311.34
2022-12-31T05:33:16.723Z,100322.34
2022-12-31T05:35:51.145Z,100320.78
2022-12-31T05:38:22.205Z,100326.59
2022-12-31T05:41:03.171Z,100309.81
2022-12-31T05:43:35.252Z,100295.22
2022-12-31T05:46:08.335Z,100278.31
2022-12-31T05:48:39.913Z,100274.75
2022-12-31T05:51:14.338Z,100261.13
2022-12-31T05:53:45.888Z,100257.59
2022-12-31T05:56:18.203Z,100264.13
2022-12-31T05:58:49.633Z,100260.53
2022-12-31T06:01:21.501Z,100262.53
2022-12-31T06:03:52.739Z,100248.53
2022-12-31T06:06:27.015Z,100238.44
2022-12-31T06:08:58.464Z,100238.63
2022-12-31T06:11:30.150Z,100241.72
2022-12-31T06:14:01.720Z,100237.22
2022-12-31T06:16:33.466Z,100233.22
2022-12-31T06:19:05.102Z,100240.66
2022-12-31T06:21:39.693Z,100236.16
2022-12-31T06:24:11.631Z,100231.19
2022-12-31T06:26:43.408Z,100235.66
2022-12-31T06:29:14.783Z,100231.38
2022-12-31T06:31:46.408Z,100226.41
2022-12-31T06:34:17.704Z,100225.84
2022-12-31T06:36:51.844Z,100232.69
2022-12-31T06:39:23.175Z,100229.59
2022-12-31T06:41:54.861Z,100233.31
2022-12-31T06:44:26.288Z,100229.06
2022-12-31T06:46:58.001Z,100224.56
2022-12-31T06:49:29.269Z,100235.72
2022-12-31T06:52:03.794Z,100226.84
2022-12-31T06:54:35.645Z,100222.50
2022-12-31T06:57:08.136Z,100211.25
2022-12-31T06:59:40.130Z,100221.09
2022-12-31T07:02:24.178Z,100210.16
2022-12-31T07:05:34.011Z,100222.34
2022-12-31T07:08:22.032Z,100223.06
2022-12-31T07:11:00.336Z,100213.59
2022-12-31T07:13:49.778Z,100205.56
2022-12-31T07:16:32.297Z,100193.47
2022-12-31T07:19:22.773Z,100197.03
2022-12-31T07:21:57.166Z,100207.97
2022-12-31T07:24:32.540Z,100209.47
2022-12-31T07:27:19.091Z,100206.59
2022-12-31T07:30:06.173Z,100206.50
2022-12-31T07:32:56.442Z,100214.41
2022-12-31T07:35:38.025Z,100220.97
2022-12-31T07:38:18.158Z,100212.44
2022-12-31T07:41:09.721Z,100199.69
2022-12-31T07:43:56.624Z,100217.84
2022-12-31T07:46:36.989Z,100213.91
2022-12-31T07:49:13.691Z,100207.88
2022-12-31T07:51:46.711Z,100213.06
2022-12-31T07:54:20.774Z,100229.34
2022-12-31T07:56:55.656Z,100235.16
2022-12-31T07:59:45.232Z,100234.75
2022-12-31T08:02:30.298Z,100243.72
2022-12-31T08:05:10.151Z,100239.31
2022-12-31T08:07:51.896Z,100254.94
2022-12-31T08:10:32.362Z,100236.16
2022-12-31T08:13:12.294Z,100239.75
2022-12-31T08:15:44.651Z,100243.47
2022-12-31T08:18:22.347Z,100248.91
2022-12-31T08:21:07.363Z,100248.06
2022-12-31T08:23:48.034Z,100251.16
2022-12-31T08:26:31.106Z,100243.03
2022-12-31T08:29:22.173Z,100237.84
2022-12-31T08:31:59.906Z,100243.47
2022-12-31T08:34:41.088Z,100242.03
2022-12-31T08:37:17.517Z,100247.84
2022-12-31T08:40:04.109Z,100245.53
2022-12-31T08:42:43.470Z,100255.50
2022-12-31T08:45:25.575Z,100261.53
2022-12-31T08:48:06.273Z,100243.84
2022-12-31T08:50:39.038Z,100247.09
2022-12-31T08:53:13.346Z,100274.59
2022-12-31T08:55:47.747Z,100256.91
2022-12-31T09:01:48.080Z,100268.91
2022-12-31T09:04:26.576Z,100268.53
2022-12-31T09:07:04.665Z,100276.03
2022-12-31T09:09:47.959Z,100276.84
2022-12-31T09:12:29.289Z,100283.59
2022-12-31T09:15:09.635Z,100270.13
2022-12-31T09:17:48.778Z,100263.50
2022-12-31T09:20:26.199Z,100259.66
2022-12-31T09:22:59.480Z,100276.88
2022-12-31T09:25:32.171Z,100267.44
2022-12-31T09:28:14.985Z,100261.47
2022-12-31T09:30:54.424Z,100256.50
2022-12-31T09:33:39.932Z,100258.13
2022-12-31T09:36:18.359Z,100257.97
2022-12-31T09:38:59.043Z,100264.97
2022-12-31T09:41:54.608Z,100248.59
2022-12-31T09:44:57.864Z,100244.91
2022-12-31T09:47:58.140Z,100249.50
2022-12-31T09:50:57.450Z,100254.06
2022-12-31T09:53:44.349Z,100249.91
2022-12-31T09:56:23.935Z,100250.91
2022-12-31T09:59:06.197Z,100245.44
2022-12-31T10:01:52.828Z,100254.13
2022-12-31T10:04:59.531Z,100244.94
2022-12-31T10:07:53.594Z,100243.69
2022-12-31T10:10:33.069Z,100254.66
2022-12-31T10:13:24.327Z,100260.44
2022-12-31T10:16:26.112Z,100254.69
2022-12-31T10:19:27.176Z,100281.16
2022-12-31T10:22:17.812Z,100275.06
2022-12-31T10:25:38.545Z,100276.66
2022-12-31T10:28:21.971Z,100282.97
2022-12-31T10:31:19.964Z,100307.22
2022-12-31T10:34:17.737Z,100286.06
2022-12-31T10:37:05.712Z,100300.22
2022-12-31T10:39:50.387Z,100298.94
2022-12-31T10:43:11.659Z,100313.44
2022-12-31T10:46:23.469Z,100321.28
2022-12-31T10:49:21.079Z,100335.88
2022-12-31T10:52:24.173Z,100339.44
2022-12-31T10:55:33.086Z,100335.63
2022-12-31T10:58:36.937Z,100329.63
2022-12-31T11:01:20.685Z,100331.00
2022-12-31T11:04:23.288Z,100343.03
2022-12-31T11:07:27.493Z,100334.06
2022-12-31T11:10:49.588Z,100345.22
2022-12-31T11:13:52.519Z,100345.53
2022-12-31T11:16:48.421Z,100350.34
2022-12-31T11:19:35.642Z,100355.22
2022-12-31T11:22:38.728Z,100354.63
2022-12-31T11:25:31.288Z,100349.19
2022-12-31T11:28:22.713Z,100340.75
2022-12-31T11:31:14.497Z,100349.91
2022-12-31T11:34:06.784Z,100345.00
2022-12-31T11:36:49.074Z,100340.63
2022-12-31T11:39:43.048Z,100333.22
2022-12-31T11:42:26.328Z,100323.53
2022-12-31T11:45:04.770Z,100316.59
2022-12-31T11:48:29.232Z,100322.72
2022-12-31T11:50:58.799Z,100314.31
2022-12-31T11:53:47.994Z,100312.47
2022-12-31T11:56:22.233Z,100308.41
2022-12-31T11:58:56.138Z,100308.63
2022-12-31T12:01:36.921Z,100305.00
2022-12-31T12:04:09.042Z,100307.66
2022-12-31T12:06:46.703Z,100311.06
2022-12-31T12:09:25.837Z,100307.69
2022-12-31T12:12:03.264Z,100300.91
2022-12-31T12:14:37.261Z,100309.25
2022-12-31T12:17:12.469Z,100301.56
2022-12-31T12:19:48.419Z,100301.06
2022-12-31T12:22:28.280Z,100303.47
2022-12-31T12:25:05.989Z,100300.00
2022-12-31T12:27:42.027Z,100312.44
2022-12-31T12:30:14.892Z,100307.75
2022-12-31T12:33:02.586Z,100302.19
2022-12-31T12:35:37.675Z,100302.53
2022-12-31T12:38:20.048Z,100313.16
2022-12-31T12:41:00.590Z,100308.09
2022-12-31T12:43:35.629Z,100293.66
2022-12-31T12:46:09.684Z,100291.84
2022-12-31T12:48:44.217Z,100294.50
2022-12-31T12:51:29.150Z,100296.28
2022-12-31T12:54:13.455Z,100294.28
2022-12-31T12:56:55.202Z,100301.16
2022-12-31T12:59:51.314Z,100292.22
2022-12-31T13:02:57.772Z,100277.03
2022-12-31T13:05:41.319Z,100295.66
2022-12-31T13:08:28.153Z,100288.13
2022-12-31T13:11:16.329Z,100294.94
2022-12-31T13:13:57.604Z,100291.47
2022-12-31T13:16:38.082Z,100294.28
2022-12-31T13:19:19.639Z,100306.19
2022-12-31T13:21:59.845Z,100305.72
2022-12-31T13:24:46.085Z,100309.19
2022-12-31T13:27:27.335Z,100305.59
2022-12-31T13:30:03.445Z,100316.03
2022-12-31T13:32:42.853Z,100319.31
2022-12-31T13:35:29.251Z,100308.22
2022-12-31T13:38:07.652Z,100316.63
2022-12-31T13:40:49.464Z,100308.84
2022-12-31T13:43:35.812Z,100321.75
2022-12-31T13:46:15.741Z,100315.09
2022-12-31T13:48:54.875Z,100347.63
2022-12-31T13:51:37.057Z,100333.47
2022-12-31T13:54:15.963Z,100349.19
2022-12-31T13:56:51.478Z,100359.00
2022-12-31T13:59:31.782Z,100371.53
2022-12-31T14:02:12.019Z,100376.38
2022-12-31T14:04:50.850Z,100394.19
2022-12-31T14:07:36.473Z,100407.69
2022-12-31T14:10:16.756Z,100417.06
2022-12-31T14:12:59.290Z,100440.91
2022-12-31T14:15:44.456Z,100443.63
2022-12-31T14:18:24.611Z,100444.69
2022-12-31T14:21:05.448Z,100449.13
2022-12-31T14:23:46.372Z,100454.72
2022-12-31T14:26:28.647Z,100445.78
2022-12-31T14:29:11.920Z,100444.44
2022-12-31T14:32:09.633Z,100442.88
2022-12-31T14:34:50.051Z,100448.59
2022-12-31T14:37:33.297Z,100452.09
2022-12-31T14:40:19.648Z,100445.38
2022-12-31T14:43:04.848Z,100460.03
2022-12-31T14:45:51.097Z,100471.53
2022-12-31T14:48:36.594Z,100461.59
2022-12-31T14:51:09.764Z,100474.19
2022-12-31T14:53:42.166Z,100472.63
2022-12-31T14:56:34.361Z,100475.28
2022-12-31T14:59:06.794Z,100475.31
2022-12-31T15:01:48.519Z,100476.91
2022-12-31T15:04:34.578Z,100480.50
2022-12-31T15:07:22.272Z,100472.06
2022-12-31T15:10:12.017Z,100481.84
2022-12-31T15:12:58.811Z,100478.41
2022-12-31T15:15:48.124Z,100470.94
2022-12-31T15:18:40.762Z,100484.13
2022-12-31T15:21:47.641Z,100492.38
2022-12-31T15:24:23.590Z,100468.47
2022-12-31T15:26:57.832Z,100474.53
2022-12-31T15:29:34.701Z,100469.50
2022-12-31T15:32:11.451Z,100476.81
2022-12-31T15:34:42.840Z,100488.88
2022-12-31T15:37:37.192Z,100486.50
2022-12-31T15:40:21.738Z,100487.03
2022-12-31T15:42:58.662Z,100484.34
2022-12-31T15:45:36.799Z,100493.59
2022-12-31T15:48:18.115Z,100483.84
2022-12-31T15:50:50.738Z,100483.75
2022-12-31T15:53:32.135Z,100471.38
2022-12-31T15:56:05.596Z,100476.97
2022-12-31T15:58:39.819Z,100484.16
2022-12-31T16:01:18.297Z,100476.47
2022-12-31T16:03:54.634Z,100486.69
2022-12-31T16:06:31.907Z,100506.25
2022-12-31T16:09:09.857Z,100505.25
2022-12-31T16:11:45.450Z,100508.75
2022-12-31T16:14:23.373Z,100510.34
2022-12-31T16:16:58.386Z,100505.56
2022-12-31T16:19:35.496Z,100512.00
2022-12-31T16:22:17.193Z,100512.72
2022-12-31T16:27:53.654Z,100516.63
2022-12-31T16:30:30.121Z,100516.84
2022-12-31T16:33:06.944Z,100527.34
2022-12-31T16:35:40.036Z,100520.94
2022-12-31T16:38:18.279Z,100515.72
2022-12-31T16:41:11.103Z,100525.38
2022-12-31T16:43:44.820Z,100525.06
2022-12-31T16:46:26.511Z,100536.09
2022-12-31T16:49:00.407Z,100522.06
2022-12-31T16:51:37.386Z,100526.84
2022-12-31T16:54:23.104Z,100517.94
2022-12-31T16:56:58.440Z,100527.06
2022-12-31T16:59:35.668Z,100515.66
2022-12-31T17:02:21.040Z,100519.34
2022-12-31T17:04:59.297Z,100524.38
2022-12-31T17:07:43.218Z,100522.53
2022-12-31T17:10:23.776Z,100517.34
2022-12-31T17:15:56.586Z,100511.38
2022-12-31T17:18:32.710Z,100513.50
2022-12-31T17:21:11.305Z,100519.69
2022-12-31T17:23:47.239Z,100522.63
2022-12-31T17:26:27.271Z,100523.16
2022-12-31T17:29:06.258Z,100529.56
2022-12-31T17:31:40.542Z,100532.19
2022-12-31T17:34:26.885Z,100544.44
2022-12-31T17:37:03.432Z,100539.66
2022-12-31T17:40:10.911Z,100551.94
2022-12-31T17:42:50.405Z,100546.06
2022-12-31T17:45:27.029Z,100551.00
2022-12-31T17:48:02.301Z,100563.50
2022-12-31T17:50:35.506Z,100563.75
2022-12-31T17:53:14.436Z,100562.69
2022-12-31T17:55:49.462Z,100558.50
2022-12-31T17:58:27.752Z,100553.88
2022-12-31T18:01:05.643Z,100546.94
2022-12-31T18:03:37.641Z,100545.91
2022-12-31T18:06:16.531Z,100558.50
2022-12-31T18:08:49.974Z,100551.22
2022-12-31T18:11:26.814Z,100561.19
2022-12-31T18:14:00.617Z,100557.38
2022-12-31T18:16:35.417Z,100552.59
2022-12-31T18:19:37.938Z,100570.56
2022-12-31T18:22:06.885Z,100547.94
2022-12-31T18:24:42.279Z,100550.03
2022-12-31T18:27:22.410Z,100555.63
2022-12-31T18:30:02.265Z,100559.13
2022-12-31T18:32:42.865Z,100556.97
2022-12-31T18:35:40.745Z,100566.75
2022-12-31T18:38:16.876Z,100559.44
2022-12-31T18:40:58.369Z,100567.94
2022-12-31T18:43:32.192Z,100567.56
2022-12-31T18:46:03.817Z,100568.63
2022-12-31T18:48:41.833Z,100575.94
2022-12-31T18:51:18.643Z,100579.81
2022-12-31T18:53:50.566Z,100568.72
2022-12-31T18:56:25.485Z,100569.94
2022-12-31T18:58:58.419Z,100575.72
2022-12-31T19:01:33.654Z,100583.06
2022-12-31T19:04:18.784Z,100578.94
2022-12-31T19:06:53.316Z,100563.97
2022-12-31T19:12:18.458Z,100574.63
2022-12-31T19:14:50.148Z,100579.03
2022-12-31T19:17:21.938Z,100576.50
2022-12-31T19:20:03.015Z,100578.72
2022-12-31T19:22:34.943Z,100582.03
2022-12-31T19:25:16.628Z,100572.34
2022-12-31T19:27:48.202Z,100575.38
2022-12-31T19:30:24.120Z,100564.72
2022-12-31T19:32:58.685Z,100571.38
2022-12-31T19:35:32.927Z,100579.03
2022-12-31T19:38:04.949Z,100575.34
2022-12-31T19:40:37.299Z,100562.19
2022-12-31T19:43:15.321Z,100547.41
2022-12-31T19:45:48.496Z,100565.38
2022-12-31T19:48:24.675Z,100554.72
2022-12-31T19:51:05.148Z,100549.69
2022-12-31T19:53:39.203Z,100554.75
2022-12-31T19:56:15.682Z,100556.63
2022-12-31T19:58:47.426Z,100558.22
2022-12-31T20:01:24.650Z,100548.44
2022-12-31T20:03:56.725Z,100551.38
2022-12-31T20:06:31.125Z,100570.59
2022-12-31T20:09:02.767Z,100573.44
2022-12-31T20:11:35.189Z,100579.47
2022-12-31T20:14:06.730Z,100578.19
2022-12-31T20:16:38.394Z,100582.41
2022-12-31T20:19:09.693Z,100580.56
2022-12-31T20:21:45.343Z,100579.31
2022-12-31T20:24:17.010Z,100564.97
2022-12-31T20:26:48.573Z,100570.69
2022-12-31T20:29:20.521Z,100560.53
2022-12-31T20:31:52.013Z,100566.03
2022-12-31T20:34:23.190Z,100568.66
2022-12-31T20:36:58.037Z,100576.81
2022-12-31T20:39:30.644Z,100576.63
2022-12-31T20:42:02.873Z,100584.09
2022-12-31T20:44:34.328Z,100566.69
2022-12-31T20:47:06.333Z,100568.38
2022-12-31T20:50:09.847Z,100566.31
2022-12-31T20:52:34.269Z,100554.19
2022-12-31T20:55:06.347Z,100563.56
2022-12-31T20:57:38.357Z,100561.84
2022-12-31T21:00:10.960Z,100563.47
2022-12-31T21:02:50.977Z,100563.47
2022-12-31T21:05:30.085Z,100567.78
2022-12-31T21:08:04.856Z,100573.34
2022-12-31T21:10:37.511Z,100568.09
2022-12-31T21:13:06.319Z,100565.81
2022-12-31T21:15:39.701Z,100572.03
2022-12-31T21:18:11.338Z,100575.06
2022-12-31T21:20:43.914Z,100584.25
2022-12-31T21:23:19.163Z,100560.66
2022-12-31T21:25:54.880Z,100561.94
2022-12-31T21:28:28.468Z,100572.63
2022-12-31T21:31:03.757Z,100566.75
2022-12-31T21:33:35.611Z,100554.94
2022-12-31T21:36:08.986Z,100578.31
2022-12-31T21:38:43.445Z,100570.31
2022-12-31T21:41:36.280Z,100582.34
2022-12-31T21:44:08.670Z,100578.38
2022-12-31T21:46:54.546Z,100575.25
2022-12-31T21:49:32.081Z,100581.75
2022-12-31T21:52:15.999Z,100574.31
2022-12-31T21:55:03.114Z,100566.88
2022-12-31T21:57:52.191Z,100594.31
2022-12-31T22:00:42.954Z,100587.75
2022-12-31T22:03:28.391Z,100595.22
2022-12-31T22:06:06.241Z,100596.69
2022-12-31T22:08:38.503Z,100574.47
2022-12-31T22:11:15.445Z,100577.44
2022-12-31T22:13:54.893Z,100593.72
2022-12-31T22:16:27.039Z,100601.25
2022-12-31T22:19:01.629Z,100596.03
2022-12-31T22:21:33.546Z,100597.81
2022-12-31T22:24:05.645Z,100615.78
2022-12-31T22:26:44.784Z,100601.59
2022-12-31T22:29:21.817Z,100624.94
2022-12-31T22:31:59.435Z,100614.31
2022-12-31T22:34:33.364Z,100617.44
2022-12-31T22:37:27.511Z,100624.13
2022-12-31T22:39:57.074Z,100635.84
2022-12-31T22:42:31.902Z,100639.16
2022-12-31T22:45:07.253Z,100634.53
2022-12-31T22:47:41.888Z,100627.97
2022-12-31T22:50:13.682Z,100646.28
2022-12-31T22:52:45.350Z,100639.78
2022-12-31T22:55:23.119Z,100633.97
2022-12-31T22:58:02.873Z,100635.63
2022-12-31T23:00:44.419Z,100635.84
2022-12-31T23:03:16.703Z,100625.59
2022-12-31T23:05:53.826Z,100639.63
2022-12-31T23:08:26.553Z,100639.78
2022-12-31T23:11:06.147Z,100642.94
2022-12-31T23:13:56.354Z,100643.13
2022-12-31T23:16:45.675Z,100640.84
2022-12-31T23:19:31.605Z,100644.38
2022-12-31T23:22:15.638Z,100643.97
2022-12-31T23:24:47.431Z,100650.03
2022-12-31T23:27:18.909Z,100648.34
2022-12-31T23:29:53.153Z,100640.84
2022-12-31T23:32:26.924Z,100654.00
2022-12-31T23:35:06.130Z,100650.84
2022-12-31T23:37:41.306Z,100643.97
2022-12-31T23:40:20.834Z,100644.59
2022-12-31T23:42:53.151Z,100648.16
2022-12-31T23:45:32.812Z,100650.66
2022-12-31T23:48:05.621Z,100652.28
2022-12-31T23:50:37.261Z,100665.50
2022-12-31T23:53:08.795Z,100670.88
2022-12-31T23:55:40.382Z,100675.69
2022-12-31T23:58:11.831Z,100683.81
